sensor_id;sensor_type;location;lat;lon;timestamp;temperature;humidity
47514;DHT22;33951;51.988;5.910;2023-03-20T00:08:41;9.50;99.90
47514;DHT22;33951;51.988;5.910;2023-03-20T00:11:34;9.40;99.90
47514;DHT22;33951;51.988;5.910;2023-03-20T00:14:08;9.20;99.90
47514;DHT22;33951;51.988;5.910;2023-03-20T00:16:42;9.10;99.90
47514;DHT22;33951;51.988;5.910;2023-03-20T00:19:18;9.10;99.90
47514;DHT22;33951;51.988;5.910;2023-03-20T00:21:45;9.10;99.90
47514;DHT22;33951;51.988;5.910;2023-03-20T00:24:13;9.00;99.90
47514;DHT22;33951;51.988;5.910;2023-03-20T00:26:45;9.10;99.90
47514;DHT22;33951;51.988;5.910;2023-03-20T00:29:26;9.00;99.90
47514;DHT22;33951;51.988;5.910;2023-03-20T00:31:55;9.00;99.90
47514;DHT22;33951;51.988;5.910;2023-03-20T00:34:23;9.00;99.90
47514;DHT22;33951;51.988;5.910;2023-03-20T00:36:53;9.00;99.90
47514;DHT22;33951;51.988;5.910;2023-03-20T00:39:23;9.10;99.90
47514;DHT22;33951;51.988;5.910;2023-03-20T00:41:53;9.10;99.90
47514;DHT22;33951;51.988;5.910;2023-03-20T00:44:28;9.20;99.90
47514;DHT22;33951;51.988;5.910;2023-03-20T00:47:00;9.00;99.90
47514;DHT22;33951;51.988;5.910;2023-03-20T00:49:32;9.00;99.90
47514;DHT22;33951;51.988;5.910;2023-03-20T00:51:59;9.00;99.90
47514;DHT22;33951;51.988;5.910;2023-03-20T00:54:27;9.00;99.90
47514;DHT22;33951;51.988;5.910;2023-03-20T00:57:06;9.00;99.90
47514;DHT22;33951;51.988;5.910;2023-03-20T00:59:37;8.90;99.90
47514;DHT22;33951;51.988;5.910;2023-03-20T05:03:06;7.60;99.90
47514;DHT22;33951;51.988;5.910;2023-03-20T05:05:59;7.50;99.90
47514;DHT22;33951;51.988;5.910;2023-03-20T05:11:33;7.60;99.90
47514;DHT22;33951;51.988;5.910;2023-03-20T05:14:31;7.70;99.90
47514;DHT22;33951;51.988;5.910;2023-03-20T05:17:08;7.70;99.90
47514;DHT22;33951;51.988;5.910;2023-03-20T05:19:36;7.60;99.90
47514;DHT22;33951;51.988;5.910;2023-03-20T05:22:03;7.60;99.90
47514;DHT22;33951;51.988;5.910;2023-03-20T05:24:29;7.70;99.90
47514;DHT22;33951;51.988;5.910;2023-03-20T05:26:56;7.60;99.90
47514;DHT22;33951;51.988;5.910;2023-03-20T05:29:22;7.70;99.90
47514;DHT22;33951;51.988;5.910;2023-03-20T05:31:47;7.60;99.90
47514;DHT22;33951;51.988;5.910;2023-03-20T05:34:13;7.60;99.90
47514;DHT22;33951;51.988;5.910;2023-03-20T05:36:41;7.50;99.90
47514;DHT22;33951;51.988;5.910;2023-03-20T05:39:07;7.50;99.90
47514;DHT22;33951;51.988;5.910;2023-03-20T05:41:33;7.50;99.90
47514;DHT22;33951;51.988;5.910;2023-03-20T05:43:58;7.40;99.90
47514;DHT22;33951;51.988;5.910;2023-03-20T05:46:24;7.50;99.90
47514;DHT22;33951;51.988;5.910;2023-03-20T05:48:51;7.50;99.90
47514;DHT22;33951;51.988;5.910;2023-03-20T05:51:16;7.50;99.90
47514;DHT22;33951;51.988;5.910;2023-03-20T05:53:42;7.40;99.90
47514;DHT22;33951;51.988;5.910;2023-03-20T05:56:08;7.50;99.90
47514;DHT22;33951;51.988;5.910;2023-03-20T05:58:39;7.50;99.90
47514;DHT22;33951;51.988;5.910;2023-03-20T06:01:09;7.60;99.90
47514;DHT22;33951;51.988;5.910;2023-03-20T06:03:35;7.70;99.90
47514;DHT22;33951;51.988;5.910;2023-03-20T06:06:02;7.70;99.90
47514;DHT22;33951;51.988;5.910;2023-03-20T06:08:28;7.60;99.90
47514;DHT22;33951;51.988;5.910;2023-03-20T06:10:55;7.60;99.90
47514;DHT22;33951;51.988;5.910;2023-03-20T06:13:20;7.70;99.90
47514;DHT22;33951;51.988;5.910;2023-03-20T06:15:49;7.70;99.90
47514;DHT22;33951;51.988;5.910;2023-03-20T06:18:18;7.60;99.90
47514;DHT22;33951;51.988;5.910;2023-03-20T06:20:51;7.60;99.90
47514;DHT22;33951;51.988;5.910;2023-03-20T06:23:18;7.70;99.90
47514;DHT22;33951;51.988;5.910;2023-03-20T06:25:43;7.80;99.90
47514;DHT22;33951;51.988;5.910;2023-03-20T06:28:09;7.80;99.90
47514;DHT22;33951;51.988;5.910;2023-03-20T06:30:35;7.70;99.90
47514;DHT22;33951;51.988;5.910;2023-03-20T06:33:01;7.70;99.90
47514;DHT22;33951;51.988;5.910;2023-03-20T06:35:28;7.70;99.90
47514;DHT22;33951;51.988;5.910;2023-03-20T06:37:56;7.80;99.90
47514;DHT22;33951;51.988;5.910;2023-03-20T06:40:22;7.90;99.90
47514;DHT22;33951;51.988;5.910;2023-03-20T06:42:51;7.90;99.90
47514;DHT22;33951;51.988;5.910;2023-03-20T06:45:17;7.90;99.90
47514;DHT22;33951;51.988;5.910;2023-03-20T06:47:42;8.00;99.90
47514;DHT22;33951;51.988;5.910;2023-03-20T06:50:08;7.90;99.90
47514;DHT22;33951;51.988;5.910;2023-03-20T06:52:34;7.70;99.90
47514;DHT22;33951;51.988;5.910;2023-03-20T06:55:00;7.70;99.90
47514;DHT22;33951;51.988;5.910;2023-03-20T06:57:26;7.90;99.90
47514;DHT22;33951;51.988;5.910;2023-03-20T06:59:51;8.00;99.90
47514;DHT22;33951;51.988;5.910;2023-03-20T07:02:17;7.90;99.90
47514;DHT22;33951;51.988;5.910;2023-03-20T07:04:45;7.80;99.90
47514;DHT22;33951;51.988;5.910;2023-03-20T07:07:14;7.90;99.90
47514;DHT22;33951;51.988;5.910;2023-03-20T07:09:41;7.80;99.90
47514;DHT22;33951;51.988;5.910;2023-03-20T07:12:21;7.80;99.90
47514;DHT22;33951;51.988;5.910;2023-03-20T07:14:48;7.80;99.90
47514;DHT22;33951;51.988;5.910;2023-03-20T07:17:14;7.70;99.90
47514;DHT22;33951;51.988;5.910;2023-03-20T07:19:51;7.70;99.90
47514;DHT22;33951;51.988;5.910;2023-03-20T07:22:22;7.70;99.90
47514;DHT22;33951;51.988;5.910;2023-03-20T07:24:54;7.90;99.90
47514;DHT22;33951;51.988;5.910;2023-03-20T07:27:28;7.90;99.90
47514;DHT22;33951;51.988;5.910;2023-03-20T07:29:56;7.80;99.90
47514;DHT22;33951;51.988;5.910;2023-03-20T07:32:21;8.00;99.90
47514;DHT22;33951;51.988;5.910;2023-03-20T07:34:47;8.00;99.90
47514;DHT22;33951;51.988;5.910;2023-03-20T07:37:14;8.00;99.90
47514;DHT22;33951;51.988;5.910;2023-03-20T07:39:41;7.90;99.90
47514;DHT22;33951;51.988;5.910;2023-03-20T07:42:10;8.00;99.90
47514;DHT22;33951;51.988;5.910;2023-03-20T07:44:38;7.90;99.90
47514;DHT22;33951;51.988;5.910;2023-03-20T07:47:04;7.80;99.90
47514;DHT22;33951;51.988;5.910;2023-03-20T07:49:36;7.90;99.90
47514;DHT22;33951;51.988;5.910;2023-03-20T07:52:02;7.90;99.90
47514;DHT22;33951;51.988;5.910;2023-03-20T07:54:27;7.90;99.90
47514;DHT22;33951;51.988;5.910;2023-03-20T07:56:53;8.00;99.90
47514;DHT22;33951;51.988;5.910;2023-03-20T07:59:21;7.90;99.90
47514;DHT22;33951;51.988;5.910;2023-03-20T08:01:47;7.80;99.90
47514;DHT22;33951;51.988;5.910;2023-03-20T08:04:13;7.80;99.90
47514;DHT22;33951;51.988;5.910;2023-03-20T08:06:42;7.90;99.90
47514;DHT22;33951;51.988;5.910;2023-03-20T08:09:09;7.90;99.90
47514;DHT22;33951;51.988;5.910;2023-03-20T08:11:35;8.00;99.90
47514;DHT22;33951;51.988;5.910;2023-03-20T08:14:01;8.00;99.90
47514;DHT22;33951;51.988;5.910;2023-03-20T08:16:29;7.90;99.90
47514;DHT22;33951;51.988;5.910;2023-03-20T08:18:55;8.00;99.90
47514;DHT22;33951;51.988;5.910;2023-03-20T08:21:26;7.90;99.90
47514;DHT22;33951;51.988;5.910;2023-03-20T08:23:54;8.10;99.90
47514;DHT22;33951;51.988;5.910;2023-03-20T08:26:24;8.10;99.90
47514;DHT22;33951;51.988;5.910;2023-03-20T08:28:50;8.20;99.90
47514;DHT22;33951;51.988;5.910;2023-03-20T08:31:24;8.10;99.90
47514;DHT22;33951;51.988;5.910;2023-03-20T08:33:49;8.00;99.90
47514;DHT22;33951;51.988;5.910;2023-03-20T08:36:15;8.10;99.90
47514;DHT22;33951;51.988;5.910;2023-03-20T08:38:44;8.10;99.90
47514;DHT22;33951;51.988;5.910;2023-03-20T08:41:16;8.20;99.90
47514;DHT22;33951;51.988;5.910;2023-03-20T08:43:44;8.20;99.90
47514;DHT22;33951;51.988;5.910;2023-03-20T08:46:15;8.40;99.90
47514;DHT22;33951;51.988;5.910;2023-03-20T08:48:41;8.40;99.90
47514;DHT22;33951;51.988;5.910;2023-03-20T08:51:07;8.30;99.90
47514;DHT22;33951;51.988;5.910;2023-03-20T08:53:33;8.20;99.90
47514;DHT22;33951;51.988;5.910;2023-03-20T08:56:01;8.20;99.90
47514;DHT22;33951;51.988;5.910;2023-03-20T08:58:30;8.20;99.90
47514;DHT22;33951;51.988;5.910;2023-03-20T09:01:07;8.30;99.90
47514;DHT22;33951;51.988;5.910;2023-03-20T09:03:33;8.40;99.90
47514;DHT22;33951;51.988;5.910;2023-03-20T09:05:59;8.30;99.90
47514;DHT22;33951;51.988;5.910;2023-03-20T09:08:28;8.40;99.90
47514;DHT22;33951;51.988;5.910;2023-03-20T09:10:54;8.50;99.90
47514;DHT22;33951;51.988;5.910;2023-03-20T09:13:23;8.50;99.90
47514;DHT22;33951;51.988;5.910;2023-03-20T09:15:50;8.50;99.90
47514;DHT22;33951;51.988;5.910;2023-03-20T09:18:23;8.70;99.90
47514;DHT22;33951;51.988;5.910;2023-03-20T09:20:49;8.80;99.90
47514;DHT22;33951;51.988;5.910;2023-03-20T09:23:16;8.90;99.90
47514;DHT22;33951;51.988;5.910;2023-03-20T09:25:45;8.80;99.90
47514;DHT22;33951;51.988;5.910;2023-03-20T09:28:11;9.00;99.90
47514;DHT22;33951;51.988;5.910;2023-03-20T09:30:37;9.10;99.90
47514;DHT22;33951;51.988;5.910;2023-03-20T09:33:05;9.00;99.90
47514;DHT22;33951;51.988;5.910;2023-03-20T09:35:39;9.00;99.90
47514;DHT22;33951;51.988;5.910;2023-03-20T09:38:06;9.00;99.90
47514;DHT22;33951;51.988;5.910;2023-03-20T09:41:01;9.00;99.90
47514;DHT22;33951;51.988;5.910;2023-03-20T09:43:57;9.00;99.90
47514;DHT22;33951;51.988;5.910;2023-03-20T09:46:36;9.10;99.90
47514;DHT22;33951;51.988;5.910;2023-03-20T09:49:35;9.20;99.90
47514;DHT22;33951;51.988;5.910;2023-03-20T09:54:49;8.90;99.90
47514;DHT22;33951;51.988;5.910;2023-03-20T09:57:21;8.90;99.90
47514;DHT22;33951;51.988;5.910;2023-03-20T09:59:52;8.80;99.90
47514;DHT22;33951;51.988;5.910;2023-03-20T10:02:39;8.90;99.90
47514;DHT22;33951;51.988;5.910;2023-03-20T10:05:29;8.80;99.90
47514;DHT22;33951;51.988;5.910;2023-03-20T10:08:04;8.80;99.90
47514;DHT22;33951;51.988;5.910;2023-03-20T10:10:54;8.90;99.90
47514;DHT22;33951;51.988;5.910;2023-03-20T10:19:27;8.80;99.90
47514;DHT22;33951;51.988;5.910;2023-03-20T10:22:22;8.80;99.90
47514;DHT22;33951;51.988;5.910;2023-03-20T10:28:00;8.90;99.90
47514;DHT22;33951;51.988;5.910;2023-03-20T10:33:46;9.10;99.90
47514;DHT22;33951;51.988;5.910;2023-03-20T10:41:21;8.70;99.90
47514;DHT22;33951;51.988;5.910;2023-03-20T10:43:48;8.80;99.90
47514;DHT22;33951;51.988;5.910;2023-03-20T10:46:22;8.80;99.90
47514;DHT22;33951;51.988;5.910;2023-03-20T10:51:21;8.80;99.90
47514;DHT22;33951;51.988;5.910;2023-03-20T10:53:56;8.70;99.90
47514;DHT22;33951;51.988;5.910;2023-03-20T10:56:35;8.80;99.90
47514;DHT22;33951;51.988;5.910;2023-03-20T10:59:26;9.00;99.90
47514;DHT22;33951;51.988;5.910;2023-03-20T11:01:55;9.00;99.90
47514;DHT22;33951;51.988;5.910;2023-03-20T11:04:21;9.10;99.90
47514;DHT22;33951;51.988;5.910;2023-03-20T11:09:30;9.10;99.90
47514;DHT22;33951;51.988;5.910;2023-03-20T11:11:58;9.10;99.90
47514;DHT22;33951;51.988;5.910;2023-03-20T11:14:33;9.00;99.90
47514;DHT22;33951;51.988;5.910;2023-03-20T11:17:01;8.90;99.90
47514;DHT22;33951;51.988;5.910;2023-03-20T11:19:33;8.90;99.90
47514;DHT22;33951;51.988;5.910;2023-03-20T11:22:05;8.90;99.90
47514;DHT22;33951;51.988;5.910;2023-03-20T11:24:41;9.00;99.90
47514;DHT22;33951;51.988;5.910;2023-03-20T11:27:15;9.20;99.90
47514;DHT22;33951;51.988;5.910;2023-03-20T11:29:42;9.40;99.90
47514;DHT22;33951;51.988;5.910;2023-03-20T11:32:30;9.40;99.90
47514;DHT22;33951;51.988;5.910;2023-03-20T11:34:57;9.30;99.90
47514;DHT22;33951;51.988;5.910;2023-03-20T11:37:34;9.30;99.90
47514;DHT22;33951;51.988;5.910;2023-03-20T11:42:56;8.90;99.90
47514;DHT22;33951;51.988;5.910;2023-03-20T11:45:22;9.00;99.90
47514;DHT22;33951;51.988;5.910;2023-03-20T11:47:54;9.00;99.90
47514;DHT22;33951;51.988;5.910;2023-03-20T11:50:33;9.20;99.90
47514;DHT22;33951;51.988;5.910;2023-03-20T11:53:35;9.20;99.90
47514;DHT22;33951;51.988;5.910;2023-03-20T11:58:38;9.50;99.90
47514;DHT22;33951;51.988;5.910;2023-03-20T12:01:11;9.40;99.90
47514;DHT22;33951;51.988;5.910;2023-03-20T12:07:05;9.30;99.90
47514;DHT22;33951;51.988;5.910;2023-03-20T12:12:05;9.50;99.90
47514;DHT22;33951;51.988;5.910;2023-03-20T12:14:52;9.40;99.90
47514;DHT22;33951;51.988;5.910;2023-03-20T12:25:48;9.20;99.90
47514;DHT22;33951;51.988;5.910;2023-03-20T12:34:00;9.00;99.90
47514;DHT22;33951;51.988;5.910;2023-03-20T12:36:37;8.90;99.90
47514;DHT22;33951;51.988;5.910;2023-03-20T12:39:20;8.90;99.90
47514;DHT22;33951;51.988;5.910;2023-03-20T12:44:35;9.10;99.90
47514;DHT22;33951;51.988;5.910;2023-03-20T12:52:37;9.10;99.90
47514;DHT22;33951;51.988;5.910;2023-03-20T12:55:34;9.10;99.90
47514;DHT22;33951;51.988;5.910;2023-03-20T13:01:03;9.10;99.90
47514;DHT22;33951;51.988;5.910;2023-03-20T13:06:39;9.30;99.90
47514;DHT22;33951;51.988;5.910;2023-03-20T13:09:33;9.30;99.90
47514;DHT22;33951;51.988;5.910;2023-03-20T13:15:46;9.30;99.90
47514;DHT22;33951;51.988;5.910;2023-03-20T13:21:08;9.20;99.90
47514;DHT22;33951;51.988;5.910;2023-03-20T13:23:53;9.10;99.90
47514;DHT22;33951;51.988;5.910;2023-03-20T13:29:07;9.10;99.90
47514;DHT22;33951;51.988;5.910;2023-03-20T13:34:55;9.30;99.90
47514;DHT22;33951;51.988;5.910;2023-03-20T13:37:32;9.20;99.90
47514;DHT22;33951;51.988;5.910;2023-03-20T13:43:12;9.20;99.90
47514;DHT22;33951;51.988;5.910;2023-03-20T13:48:43;9.00;99.90
47514;DHT22;33951;51.988;5.910;2023-03-20T13:51:44;8.90;99.90
47514;DHT22;33951;51.988;5.910;2023-03-20T13:54:31;9.00;99.90
47514;DHT22;33951;51.988;5.910;2023-03-20T14:02:30;9.00;99.90
47514;DHT22;33951;51.988;5.910;2023-03-20T14:05:09;9.10;99.90
47514;DHT22;33951;51.988;5.910;2023-03-20T14:07:43;9.00;99.90
47514;DHT22;33951;51.988;5.910;2023-03-20T14:13:09;9.10;99.90
47514;DHT22;33951;51.988;5.910;2023-03-20T14:15:53;9.10;99.90
47514;DHT22;33951;51.988;5.910;2023-03-20T14:18:25;9.10;99.90
47514;DHT22;33951;51.988;5.910;2023-03-20T14:21:01;9.10;99.90
47514;DHT22;33951;51.988;5.910;2023-03-20T14:23:38;9.00;99.90
47514;DHT22;33951;51.988;5.910;2023-03-20T14:26:42;9.00;99.90
47514;DHT22;33951;51.988;5.910;2023-03-20T14:29:32;9.00;99.90
47514;DHT22;33951;51.988;5.910;2023-03-20T14:32:46;8.90;99.90
47514;DHT22;33951;51.988;5.910;2023-03-20T14:35:26;8.90;99.90
47514;DHT22;33951;51.988;5.910;2023-03-20T14:41:32;8.90;99.90
47514;DHT22;33951;51.988;5.910;2023-03-20T14:51:05;9.00;99.90
47514;DHT22;33951;51.988;5.910;2023-03-20T14:53:52;9.00;99.90
47514;DHT22;33951;51.988;5.910;2023-03-20T14:56:33;9.10;99.90
47514;DHT22;33951;51.988;5.910;2023-03-20T14:59:51;8.90;99.90
47514;DHT22;33951;51.988;5.910;2023-03-20T15:02:34;9.00;99.90
47514;DHT22;33951;51.988;5.910;2023-03-20T15:05:03;9.00;99.90
47514;DHT22;33951;51.988;5.910;2023-03-20T15:07:50;9.00;99.90
47514;DHT22;33951;51.988;5.910;2023-03-20T15:10:22;9.00;99.90
47514;DHT22;33951;51.988;5.910;2023-03-20T15:12:51;9.10;99.90
47514;DHT22;33951;51.988;5.910;2023-03-20T15:15:33;9.10;99.90
47514;DHT22;33951;51.988;5.910;2023-03-20T15:18:12;9.00;99.90
47514;DHT22;33951;51.988;5.910;2023-03-20T15:21:02;9.00;99.90
47514;DHT22;33951;51.988;5.910;2023-03-20T15:24:06;8.90;99.90
47514;DHT22;33951;51.988;5.910;2023-03-20T15:26:58;8.90;99.90
47514;DHT22;33951;51.988;5.910;2023-03-20T15:29:25;8.80;99.90
47514;DHT22;33951;51.988;5.910;2023-03-20T15:31:54;8.80;99.90
47514;DHT22;33951;51.988;5.910;2023-03-20T15:34:22;8.80;99.90
47514;DHT22;33951;51.988;5.910;2023-03-20T15:37:12;8.70;99.90
47514;DHT22;33951;51.988;5.910;2023-03-20T15:39:50;8.80;99.90
47514;DHT22;33951;51.988;5.910;2023-03-20T15:42:19;8.70;99.90
47514;DHT22;33951;51.988;5.910;2023-03-20T15:44:50;8.80;99.90
47514;DHT22;33951;51.988;5.910;2023-03-20T15:47:28;8.80;99.90
47514;DHT22;33951;51.988;5.910;2023-03-20T15:49:58;8.80;99.90
47514;DHT22;33951;51.988;5.910;2023-03-20T15:52:46;8.80;99.90
47514;DHT22;33951;51.988;5.910;2023-03-20T15:55:27;8.80;99.90
47514;DHT22;33951;51.988;5.910;2023-03-20T15:58:00;8.90;99.90
47514;DHT22;33951;51.988;5.910;2023-03-20T16:00:41;8.90;99.90
47514;DHT22;33951;51.988;5.910;2023-03-20T16:03:14;8.80;99.90
47514;DHT22;33951;51.988;5.910;2023-03-20T16:05:57;8.90;99.90
47514;DHT22;33951;51.988;5.910;2023-03-20T16:08:36;8.90;99.90
47514;DHT22;33951;51.988;5.910;2023-03-20T16:11:15;8.70;99.90
47514;DHT22;33951;51.988;5.910;2023-03-20T16:13:49;8.70;99.90
47514;DHT22;33951;51.988;5.910;2023-03-20T16:16:22;8.90;99.90
47514;DHT22;33951;51.988;5.910;2023-03-20T16:18:51;8.80;99.90
47514;DHT22;33951;51.988;5.910;2023-03-20T16:21:26;8.90;99.90
47514;DHT22;33951;51.988;5.910;2023-03-20T16:23:55;8.80;99.90
47514;DHT22;33951;51.988;5.910;2023-03-20T16:26:29;8.70;99.90
47514;DHT22;33951;51.988;5.910;2023-03-20T16:29:03;8.80;99.90
47514;DHT22;33951;51.988;5.910;2023-03-20T16:31:43;8.70;99.90
47514;DHT22;33951;51.988;5.910;2023-03-20T16:34:17;8.70;99.90
47514;DHT22;33951;51.988;5.910;2023-03-20T16:36:59;8.70;99.90
47514;DHT22;33951;51.988;5.910;2023-03-20T16:39:34;8.70;99.90
47514;DHT22;33951;51.988;5.910;2023-03-20T16:45:40;8.50;99.90
47514;DHT22;33951;51.988;5.910;2023-03-20T16:50:47;8.60;99.90
47514;DHT22;33951;51.988;5.910;2023-03-20T16:53:23;8.70;99.90
47514;DHT22;33951;51.988;5.910;2023-03-20T16:59:17;8.80;99.90
47514;DHT22;33951;51.988;5.910;2023-03-20T17:01:45;8.80;99.90
47514;DHT22;33951;51.988;5.910;2023-03-20T17:04:37;8.80;99.90
47514;DHT22;33951;51.988;5.910;2023-03-20T17:07:12;8.90;99.90
47514;DHT22;33951;51.988;5.910;2023-03-20T17:13:00;9.00;99.90
47514;DHT22;33951;51.988;5.910;2023-03-20T17:43:18;9.10;99.90
47514;DHT22;33951;51.988;5.910;2023-03-20T17:56:54;9.30;99.90
47514;DHT22;33951;51.988;5.910;2023-03-20T18:03:02;9.40;99.90
47514;DHT22;33951;51.988;5.910;2023-03-20T18:06:04;9.50;99.90
47514;DHT22;33951;51.988;5.910;2023-03-20T18:09:39;9.40;99.90
47514;DHT22;33951;51.988;5.910;2023-03-20T18:12:36;9.50;99.90
47514;DHT22;33951;51.988;5.910;2023-03-20T18:16:01;9.50;99.90
47514;DHT22;33951;51.988;5.910;2023-03-20T18:22:09;9.60;99.90
47514;DHT22;33951;51.988;5.910;2023-03-20T18:28:28;9.60;99.90
47514;DHT22;33951;51.988;5.910;2023-03-20T18:31:40;9.50;99.90
47514;DHT22;33951;51.988;5.910;2023-03-20T18:34:54;9.50;99.90
47514;DHT22;33951;51.988;5.910;2023-03-20T18:38:13;9.50;99.90
47514;DHT22;33951;51.988;5.910;2023-03-20T18:43:41;9.70;99.90
47514;DHT22;33951;51.988;5.910;2023-03-20T18:52:17;9.90;99.90
47514;DHT22;33951;51.988;5.910;2023-03-20T18:54:59;9.80;99.90
47514;DHT22;33951;51.988;5.910;2023-03-20T18:57:28;9.80;99.90
47514;DHT22;33951;51.988;5.910;2023-03-20T19:00:02;9.70;99.90
47514;DHT22;33951;51.988;5.910;2023-03-20T19:02:48;9.70;99.90
47514;DHT22;33951;51.988;5.910;2023-03-20T19:05:30;9.60;99.90
47514;DHT22;33951;51.988;5.910;2023-03-20T19:08:18;9.60;99.90
47514;DHT22;33951;51.988;5.910;2023-03-20T19:10:47;9.60;99.90
47514;DHT22;33951;51.988;5.910;2023-03-20T19:13:29;9.60;99.90
47514;DHT22;33951;51.988;5.910;2023-03-20T19:16:12;9.70;99.90
47514;DHT22;33951;51.988;5.910;2023-03-20T19:19:14;9.80;99.90
47514;DHT22;33951;51.988;5.910;2023-03-20T19:21:52;9.70;99.90
47514;DHT22;33951;51.988;5.910;2023-03-20T19:24:25;9.70;99.90
47514;DHT22;33951;51.988;5.910;2023-03-20T19:26:56;9.80;99.90
47514;DHT22;33951;51.988;5.910;2023-03-20T19:29:27;9.90;99.90
47514;DHT22;33951;51.988;5.910;2023-03-20T19:31:55;10.00;99.90
47514;DHT22;33951;51.988;5.910;2023-03-20T19:34:24;9.90;99.90
47514;DHT22;33951;51.988;5.910;2023-03-20T19:37:00;9.80;99.90
47514;DHT22;33951;51.988;5.910;2023-03-20T19:39:28;9.80;99.90
47514;DHT22;33951;51.988;5.910;2023-03-20T19:42:23;9.90;99.90
47514;DHT22;33951;51.988;5.910;2023-03-20T19:44:51;9.90;99.90
47514;DHT22;33951;51.988;5.910;2023-03-20T19:47:44;9.90;99.90
47514;DHT22;33951;51.988;5.910;2023-03-20T19:53:07;10.00;99.90
47514;DHT22;33951;51.988;5.910;2023-03-20T19:55:39;10.10;99.90
47514;DHT22;33951;51.988;5.910;2023-03-20T19:58:19;10.10;99.90
47514;DHT22;33951;51.988;5.910;2023-03-20T20:01:16;10.00;99.90
47514;DHT22;33951;51.988;5.910;2023-03-20T20:04:07;9.90;99.90
47514;DHT22;33951;51.988;5.910;2023-03-20T20:07:20;9.90;99.90
47514;DHT22;33951;51.988;5.910;2023-03-20T20:09:56;9.90;99.90
47514;DHT22;33951;51.988;5.910;2023-03-20T20:12:27;9.80;99.90
47514;DHT22;33951;51.988;5.910;2023-03-20T20:15:07;9.90;99.90
47514;DHT22;33951;51.988;5.910;2023-03-20T20:17:47;9.90;99.90
47514;DHT22;33951;51.988;5.910;2023-03-20T20:20:26;9.90;99.90
47514;DHT22;33951;51.988;5.910;2023-03-20T20:23:23;9.90;99.90
47514;DHT22;33951;51.988;5.910;2023-03-20T20:26:23;9.90;99.90
47514;DHT22;33951;51.988;5.910;2023-03-20T20:31:54;9.90;99.90
47514;DHT22;33951;51.988;5.910;2023-03-20T20:37:16;9.90;99.90
47514;DHT22;33951;51.988;5.910;2023-03-20T20:43:14;9.90;99.90
47514;DHT22;33951;51.988;5.910;2023-03-20T20:49:02;9.90;99.90
47514;DHT22;33951;51.988;5.910;2023-03-20T20:51:53;9.90;99.90
47514;DHT22;33951;51.988;5.910;2023-03-20T20:54:25;9.80;99.90
47514;DHT22;33951;51.988;5.910;2023-03-20T20:57:10;9.80;99.90
47514;DHT22;33951;51.988;5.910;2023-03-20T20:59:59;9.80;99.90
47514;DHT22;33951;51.988;5.910;2023-03-20T21:02:34;9.80;99.90
47514;DHT22;33951;51.988;5.910;2023-03-20T21:05:39;9.80;99.90
47514;DHT22;33951;51.988;5.910;2023-03-20T21:08:20;9.70;99.90
47514;DHT22;33951;51.988;5.910;2023-03-20T21:10:51;9.80;99.90
47514;DHT22;33951;51.988;5.910;2023-03-20T21:13:17;9.80;99.90
47514;DHT22;33951;51.988;5.910;2023-03-20T21:16:20;9.70;99.90
47514;DHT22;33951;51.988;5.910;2023-03-20T21:19:19;9.80;99.90
47514;DHT22;33951;51.988;5.910;2023-03-20T21:21:50;9.70;99.90
47514;DHT22;33951;51.988;5.910;2023-03-20T21:24:27;9.80;99.90
47514;DHT22;33951;51.988;5.910;2023-03-20T21:27:05;9.80;99.90
47514;DHT22;33951;51.988;5.910;2023-03-20T21:29:50;9.90;99.90
47514;DHT22;33951;51.988;5.910;2023-03-20T21:32:18;10.00;99.90
47514;DHT22;33951;51.988;5.910;2023-03-20T21:34:47;10.00;99.90
47514;DHT22;33951;51.988;5.910;2023-03-20T21:37:29;10.10;99.90
47514;DHT22;33951;51.988;5.910;2023-03-20T21:40:17;10.10;99.90
47514;DHT22;33951;51.988;5.910;2023-03-20T21:42:59;9.90;99.90
47514;DHT22;33951;51.988;5.910;2023-03-20T21:45:30;9.80;99.90
47514;DHT22;33951;51.988;5.910;2023-03-20T21:47:58;9.70;99.90
47514;DHT22;33951;51.988;5.910;2023-03-20T21:50:30;9.70;99.90
47514;DHT22;33951;51.988;5.910;2023-03-20T21:53:06;9.70;99.90
47514;DHT22;33951;51.988;5.910;2023-03-20T21:56:18;9.80;99.90
47514;DHT22;33951;51.988;5.910;2023-03-20T21:58:59;9.80;99.90
47514;DHT22;33951;51.988;5.910;2023-03-20T22:01:35;9.90;99.90
47514;DHT22;33951;51.988;5.910;2023-03-20T22:04:28;9.90;99.90
47514;DHT22;33951;51.988;5.910;2023-03-20T22:06:59;9.80;99.90
47514;DHT22;33951;51.988;5.910;2023-03-20T22:09:25;9.90;99.90
47514;DHT22;33951;51.988;5.910;2023-03-20T22:12:12;9.90;99.90
47514;DHT22;33951;51.988;5.910;2023-03-20T22:14:40;9.80;99.90
47514;DHT22;33951;51.988;5.910;2023-03-20T22:17:05;9.80;99.90
47514;DHT22;33951;51.988;5.910;2023-03-20T22:19:55;9.80;99.90
47514;DHT22;33951;51.988;5.910;2023-03-20T22:22:21;9.80;99.90
47514;DHT22;33951;51.988;5.910;2023-03-20T22:24:47;9.70;99.90
47514;DHT22;33951;51.988;5.910;2023-03-20T22:27:21;9.90;99.90
47514;DHT22;33951;51.988;5.910;2023-03-20T22:29:47;9.90;99.90
47514;DHT22;33951;51.988;5.910;2023-03-20T22:32:15;9.90;99.90
47514;DHT22;33951;51.988;5.910;2023-03-20T22:34:43;9.90;99.90
47514;DHT22;33951;51.988;5.910;2023-03-20T22:37:12;10.00;99.90
47514;DHT22;33951;51.988;5.910;2023-03-20T22:39:42;10.00;99.90
47514;DHT22;33951;51.988;5.910;2023-03-20T22:42:08;10.00;99.90
47514;DHT22;33951;51.988;5.910;2023-03-20T22:44:51;10.00;99.90
47514;DHT22;33951;51.988;5.910;2023-03-20T22:47:33;10.00;99.90
47514;DHT22;33951;51.988;5.910;2023-03-20T22:50:04;10.00;99.90
47514;DHT22;33951;51.988;5.910;2023-03-20T22:52:48;10.00;99.90
47514;DHT22;33951;51.988;5.910;2023-03-20T22:55:32;10.00;99.90
47514;DHT22;33951;51.988;5.910;2023-03-20T22:57:57;10.10;99.90
47514;DHT22;33951;51.988;5.910;2023-03-20T23:00:26;10.10;99.90
47514;DHT22;33951;51.988;5.910;2023-03-20T23:02:59;10.10;99.90
47514;DHT22;33951;51.988;5.910;2023-03-20T23:05:28;10.10;99.90
47514;DHT22;33951;51.988;5.910;2023-03-20T23:07:57;10.10;99.90
47514;DHT22;33951;51.988;5.910;2023-03-20T23:10:25;10.20;99.90
47514;DHT22;33951;51.988;5.910;2023-03-20T23:13:01;10.30;99.90
47514;DHT22;33951;51.988;5.910;2023-03-20T23:15:32;10.20;99.90
47514;DHT22;33951;51.988;5.910;2023-03-20T23:18:04;10.30;99.90
47514;DHT22;33951;51.988;5.910;2023-03-20T23:20:38;10.30;99.90
47514;DHT22;33951;51.988;5.910;2023-03-20T23:23:08;10.40;99.90
47514;DHT22;33951;51.988;5.910;2023-03-20T23:25:43;10.50;99.90
47514;DHT22;33951;51.988;5.910;2023-03-20T23:28:19;10.40;99.90
47514;DHT22;33951;51.988;5.910;2023-03-20T23:30:52;10.40;99.90
47514;DHT22;33951;51.988;5.910;2023-03-20T23:33:17;10.40;99.90
47514;DHT22;33951;51.988;5.910;2023-03-20T23:35:55;10.40;99.90
47514;DHT22;33951;51.988;5.910;2023-03-20T23:38:21;10.40;99.90
47514;DHT22;33951;51.988;5.910;2023-03-20T23:41:10;10.20;99.90
47514;DHT22;33951;51.988;5.910;2023-03-20T23:43:36;10.30;99.90
47514;DHT22;33951;51.988;5.910;2023-03-20T23:46:05;10.30;99.90
47514;DHT22;33951;51.988;5.910;2023-03-20T23:48:40;10.40;99.90
47514;DHT22;33951;51.988;5.910;2023-03-20T23:51:06;10.20;99.90
47514;DHT22;33951;51.988;5.910;2023-03-20T23:53:35;10.10;99.90
47514;DHT22;33951;51.988;5.910;2023-03-20T23:56:07;10.10;99.90